Time;durP1;ratioP1;P1;durP2;ratioP2;P2;SDS_P1;SDS_P2;PMS_P1;PMS_P2;Temp;Humidity;BMP_temperature;BMP_pressure;BME280_temperature;BME280_humidity;BME280_pressure;Samples;Min_cycle;Max_cycle;Signal;HPM_P1;HPM_P2
2023/04/19 00:02:03;;;;;;;;;;;11.90;55.40;;;7.47;95.34;95798.13;4931789;28;22929;-49
2023/04/19 00:04:29;;;;;;;;;;;11.90;55.40;;;7.48;94.94;95799.72;4965674;28;19933;-49
2023/04/19 00:06:55;;;;;;;;;;;12.00;55.50;;;7.52;94.77;95792.09;4970125;28;19917;-49
2023/04/19 00:09:21;;;;;;;;;;;12.00;55.60;;;7.47;94.96;95787.53;4968221;28;20657;-48
2023/04/19 00:11:47;;;;;;;;;;;12.00;55.50;;;7.47;94.66;95784.88;4965747;28;19917;-48
2023/04/19 00:14:12;;;;;;;;;;;12.00;55.60;;;7.46;95.02;95793.88;4969265;28;19945;-49
2023/04/19 00:16:38;;;;;;;;;;;12.00;55.50;;;7.50;94.63;95791.53;4966697;28;19914;-49
2023/04/19 00:19:04;;;;;;;;;;;12.10;55.60;;;7.44;94.98;95781.91;4969288;28;19920;-48
2023/04/19 00:21:30;;;;;;;;;;;12.00;55.50;;;7.52;94.67;95787.63;4968691;28;19918;-51
2023/04/19 00:23:56;;;;;;;;;;;12.00;55.50;;;7.46;94.72;95790.41;4971652;28;20324;-49
2023/04/19 00:26:21;;;;;;;;;;;12.00;55.50;;;7.50;94.79;95786.25;4972030;28;19958;-48
2023/04/19 00:28:47;;;;;;;;;;;12.10;55.60;;;7.45;94.86;95786.94;4967329;28;20033;-50
2023/04/19 00:31:13;;;;;;;;;;;12.00;55.60;;;7.49;94.81;95789.91;4972014;28;20000;-50
2023/04/19 00:33:38;;;;;;;;;;;12.10;55.60;;;7.49;94.85;95781.97;4967383;28;20785;-51
2023/04/19 00:36:04;;;;;;;;;;;12.10;55.60;;;7.49;95.02;95785.44;4969155;28;19920;-48
2023/04/19 00:38:30;;;;;;;;;;;12.10;55.70;;;7.50;94.97;95781.75;4967141;28;20277;-51
2023/04/19 00:40:57;;;;;;;;;;;12.10;55.70;;;7.54;94.74;95782.88;4969078;28;19960;-49
2023/04/19 00:43:23;;;;;;;;;;;12.10;55.70;;;7.54;94.49;95784.72;4969044;28;19917;-51
2023/04/19 00:45:49;;;;;;;;;;;12.10;56.30;;;7.59;94.79;95782.97;4968048;28;19909;-48
2023/04/19 00:48:14;;;;;;;;;;;12.10;55.70;;;7.61;94.34;95780.06;4969858;28;19910;-53
2023/04/19 00:50:43;;;;;;;;;;;12.20;55.80;;;7.68;94.43;95774.59;4962393;28;20052;-49
2023/04/19 00:53:09;;;;;;;;;;;12.20;55.80;;;7.72;93.97;95779.19;4946347;28;19909;-51
2023/04/19 00:55:38;;;;;;;;;;;12.20;55.80;;;7.65;94.54;95782.00;4939304;28;20412;-50
2023/04/19 00:58:07;;;;;;;;;;;12.20;55.80;;;7.57;94.49;95777.09;4967011;28;20008;-49
2023/04/19 01:00:33;;;;;;;;;;;12.20;55.80;;;7.57;94.73;95777.09;4967306;28;19940;-50
2023/04/19 01:02:59;;;;;;;;;;;12.20;55.80;;;7.66;94.64;95774.84;4962162;28;19936;-48
2023/04/19 01:05:26;;;;;;;;;;;12.30;55.80;;;7.61;94.43;95772.09;4950558;28;19925;-48
2023/04/19 01:07:51;;;;;;;;;;;12.30;55.80;;;7.63;94.45;95776.13;4953374;28;20013;-51
2023/04/19 01:10:17;;;;;;;;;;;12.30;55.90;;;7.68;94.19;95764.81;4952110;28;19910;-49
2023/04/19 01:12:43;;;;;;;;;;;12.30;55.90;;;7.64;94.24;95772.41;4952032;28;19929;-50
2023/04/19 01:15:09;;;;;;;;;;;12.30;56.00;;;7.67;94.46;95768.47;4951730;28;19910;-49
2023/04/19 01:17:35;;;;;;;;;;;12.20;55.90;;;7.65;94.60;95767.94;4950036;28;19918;-49
2023/04/19 01:20:06;;;;;;;;;;;12.30;56.60;;;7.64;94.48;95764.47;4968472;28;19992;-50
2023/04/19 01:22:33;;;;;;;;;;;12.30;56.00;;;7.65;94.44;95758.13;4949670;28;20863;-48
2023/04/19 01:24:59;;;;;;;;;;;12.20;56.00;;;7.68;94.25;95758.69;4952726;28;19917;-50
2023/04/19 01:27:25;;;;;;;;;;;12.20;56.00;;;7.64;94.55;95756.50;4948340;28;19910;-48
2023/04/19 01:29:51;;;;;;;;;;;12.20;56.00;;;7.68;94.55;95758.69;4948258;28;19933;-51
2023/04/19 01:32:17;;;;;;;;;;;12.20;56.10;;;7.56;95.11;95762.22;4951212;28;19910;-48
2023/04/19 01:34:43;;;;;;;;;;;12.20;56.00;;;7.67;94.79;95765.03;4950603;28;20092;-50
2023/04/19 01:37:09;;;;;;;;;;;12.20;56.10;;;7.70;94.34;95751.28;4953950;28;19950;-48
2023/04/19 01:39:34;;;;;;;;;;;12.20;56.20;;;7.68;94.87;95751.56;4952703;28;19916;-50
2023/04/19 01:42:00;;;;;;;;;;;12.20;56.10;;;7.65;94.60;95752.03;4965669;28;19914;-49
2023/04/19 01:44:26;;;;;;;;;;;12.20;56.10;;;7.70;94.58;95752.09;4969639;28;20973;-48
2023/04/19 01:46:51;;;;;;;;;;;12.20;56.10;;;7.69;94.41;95745.19;4954649;28;19956;-51
2023/04/19 01:49:17;;;;;;;;;;;12.30;56.20;;;7.65;94.38;95744.88;4950886;28;19964;-49
2023/04/19 01:51:43;;;;;;;;;;;12.30;56.20;;;7.70;94.43;95743.34;4955292;28;19964;-50
2023/04/19 01:54:08;;;;;;;;;;;12.30;56.30;;;7.69;94.67;95747.84;4949560;28;20023;-48
2023/04/19 01:56:35;;;;;;;;;;;12.20;56.20;;;7.69;94.76;95745.19;4948911;28;19957;-48
2023/04/19 01:59:00;;;;;;;;;;;12.30;56.30;;;7.72;94.20;95743.91;4952515;28;19980;-48
2023/04/19 02:01:26;;;;;;;;;;;12.20;56.20;;;7.74;94.18;95741.81;4944232;28;19957;-48
2023/04/19 02:03:52;;;;;;;;;;;12.20;56.30;;;7.76;94.12;95742.38;4971222;28;19933;-52
2023/04/19 02:06:18;;;;;;;;;;;12.30;56.40;;;7.73;94.14;95740.19;4968916;28;19914;-53
2023/04/19 02:08:43;;;;;;;;;;;12.30;56.30;;;7.78;93.95;95737.63;4970039;28;19916;-50
2023/04/19 02:11:13;;;;;;;;;;;12.30;56.40;;;7.69;94.33;95742.53;4974965;28;19917;-50
2023/04/19 02:13:40;;;;;;;;;;;12.30;56.40;;;7.61;94.60;95734.97;4967932;28;19932;-51
2023/04/19 02:16:06;;;;;;;;;;;12.30;56.30;;;7.69;94.56;95744.41;4967878;28;19922;-49
2023/04/19 02:18:37;;;;;;;;;;;12.30;57.00;;;7.71;94.45;95729.03;4968203;28;19914;-50
2023/04/19 02:21:04;;;;;;;;;;;12.30;56.40;;;7.61;94.73;95733.13;4970949;28;20001;-53
2023/04/19 02:23:30;;;;;;;;;;;12.30;56.40;;;7.70;94.81;95730.88;4969736;28;19914;-53
2023/04/19 02:25:56;;;;;;;;;;;12.30;56.40;;;7.72;94.72;95731.44;4970018;28;19972;-53
2023/04/19 02:28:22;;;;;;;;;;;12.30;56.50;;;7.70;94.43;95732.72;4972258;28;19937;-54
2023/04/19 02:30:47;;;;;;;;;;;12.30;56.50;;;7.78;94.17;95727.03;4970313;28;19949;-54
2023/04/19 02:33:14;;;;;;;;;;;12.30;56.50;;;7.81;94.08;95730.00;4974259;28;19932;-53
2023/04/19 02:35:40;;;;;;;;;;;12.30;56.50;;;7.81;94.43;95731.84;4970496;28;19949;-53
2023/04/19 02:38:06;;;;;;;;;;;12.30;56.50;;;7.76;94.43;95735.22;4971360;28;19941;-53
2023/04/19 02:40:32;;;;;;;;;;;12.30;56.60;;;7.80;94.28;95730.22;4967418;28;19917;-52
2023/04/19 02:42:58;;;;;;;;;;;12.30;56.50;;;7.79;94.31;95729.44;4966609;28;19965;-54
2023/04/19 02:45:24;;;;;;;;;;;12.30;56.60;;;7.79;94.72;95733.94;4969806;28;19916;-50
2023/04/19 02:47:49;;;;;;;;;;;12.40;56.60;;;7.82;94.24;95728.16;4970914;28;20019;-49
2023/04/19 02:50:16;;;;;;;;;;;12.40;56.60;;;7.79;94.01;95731.28;4969927;28;20427;-53
2023/04/19 02:52:41;;;;;;;;;;;12.40;56.70;;;7.77;94.38;95730.72;4965818;28;19924;-54
2023/04/19 02:55:08;;;;;;;;;;;12.40;56.60;;;7.77;94.29;95733.38;4953659;28;19964;-54
2023/04/19 02:57:34;;;;;;;;;;;12.40;56.60;;;7.80;94.38;95725.75;4969530;28;19910;-52
2023/04/19 02:59:59;;;;;;;;;;;12.40;56.60;;;7.84;94.20;95734.03;4969099;28;19920;-54
2023/04/19 03:02:25;;;;;;;;;;;12.40;56.70;;;7.78;94.37;95730.47;4953979;28;20432;-51
2023/04/19 03:04:51;;;;;;;;;;;12.40;57.30;;;7.74;94.98;95726.72;4969709;28;19956;-53
2023/04/19 03:07:17;;;;;;;;;;;12.30;56.70;;;7.79;94.81;95733.94;4967272;28;20365;-48
2023/04/19 03:09:44;;;;;;;;;;;12.40;56.70;;;7.79;94.72;95725.97;4973666;28;19917;-49
2023/04/19 03:12:09;;;;;;;;;;;12.40;56.80;;;7.80;94.79;95731.06;4968886;28;20335;-53
2023/04/19 03:14:35;;;;;;;;;;;12.40;56.80;;;7.79;94.61;95729.44;4967442;28;19914;-51
2023/04/19 03:17:01;;;;;;;;;;;12.30;56.80;;;7.81;94.44;95726.56;4968959;28;19914;-51
2023/04/19 03:19:28;;;;;;;;;;;12.40;56.80;;;7.82;94.36;95720.97;4966911;28;19931;-54
2023/04/19 03:21:54;;;;;;;;;;;12.30;56.80;;;7.85;94.25;95727.66;4968682;28;19917;-54
2023/04/19 03:24:26;;;;;;;;;;;12.40;56.80;;;7.84;94.14;95724.22;4971630;28;19913;-53
2023/04/19 03:26:52;;;;;;;;;;;12.40;56.90;;;7.85;94.15;95717.06;4946256;28;19910;-54
2023/04/19 03:29:17;;;;;;;;;;;12.40;56.90;;;7.89;94.05;95720.81;4968839;28;20317;-51
2023/04/19 03:31:43;;;;;;;;;;;12.40;56.90;;;7.92;94.04;95720.31;4968629;28;19924;-50
2023/04/19 03:34:09;;;;;;;;;;;12.40;56.90;;;7.86;94.04;95711.50;4966306;28;19909;-54
2023/04/19 03:36:34;;;;;;;;;;;12.40;56.90;;;7.84;94.21;95716.25;4969016;28;19943;-49
2023/04/19 03:39:02;;;;;;;;;;;12.40;56.90;;;7.86;94.02;95713.34;4965954;28;20379;-49
2023/04/19 03:41:28;;;;;;;;;;;12.40;56.90;;;7.88;94.25;95705.97;4970766;28;20449;-51
2023/04/19 03:43:54;;;;;;;;;;;12.40;56.90;;;7.88;93.96;95712.06;4967972;28;19910;-51
2023/04/19 03:46:20;;;;;;;;;;;12.40;56.90;;;7.90;93.71;95711.81;4969360;28;19993;-51
2023/04/19 03:48:46;;;;;;;;;;;12.40;56.90;;;7.92;93.60;95709.72;4972363;28;19914;-53
2023/04/19 03:51:12;;;;;;;;;;;12.50;57.00;;;7.87;93.72;95710.47;4965637;28;19934;-54
2023/04/19 03:53:38;;;;;;;;;;;12.40;56.90;;;7.88;93.93;95709.41;4964092;28;20304;-50
2023/04/19 03:56:06;;;;;;;;;;;12.40;57.00;;;7.87;93.95;95705.16;4969155;28;29135;-53
2023/04/19 03:58:32;;;;;;;;;;;12.40;57.00;;;7.90;93.82;95703.88;4969370;28;19968;-53
2023/04/19 04:00:58;;;;;;;;;;;12.40;57.00;;;7.85;94.30;95709.88;4962170;28;20400;-52
2023/04/19 04:03:24;;;;;;;;;;;12.40;57.00;;;7.91;94.31;95704.66;4962019;28;19917;-52
2023/04/19 04:05:50;;;;;;;;;;;12.50;57.10;;;7.87;94.35;95702.50;4972859;28;20296;-52
2023/04/19 04:08:16;;;;;;;;;;;12.50;57.10;;;7.86;94.07;95708.03;4970778;28;19963;-53
2023/04/19 04:10:42;;;;;;;;;;;12.40;57.00;;;7.84;94.32;95710.16;4972035;28;20034;-56
2023/04/19 04:13:07;;;;;;;;;;;12.50;57.10;;;7.79;94.32;95707.41;4969678;28;19923;-53
2023/04/19 04:15:33;;;;;;;;;;;12.40;57.10;;;7.80;94.66;95707.19;4965791;28;19960;-51
2023/04/19 04:17:59;;;;;;;;;;;12.40;57.10;;;7.83;94.59;95712.00;4970760;28;19909;-50
2023/04/19 04:20:24;;;;;;;;;;;12.40;57.10;;;7.85;94.46;95712.53;4973444;28;19910;-50
2023/04/19 04:22:51;;;;;;;;;;;12.40;57.20;;;7.84;94.72;95710.16;4969726;28;19944;-52
2023/04/19 04:25:17;;;;;;;;;;;12.40;57.20;;;7.85;94.69;95709.09;4970808;28;19976;-51
2023/04/19 04:27:44;;;;;;;;;;;12.40;57.20;;;7.85;94.78;95703.78;4969285;28;19913;-52
2023/04/19 04:30:11;;;;;;;;;;;12.40;57.30;;;7.80;95.41;95711.66;4964909;28;20332;-52
2023/04/19 04:32:37;;;;;;;;;;;12.40;57.30;;;7.82;94.97;95709.59;4968235;28;19909;-54
2023/04/19 04:35:08;;;;;;;;;;;12.40;57.90;;;7.83;95.27;95706.69;4968203;28;20029;-51
2023/04/19 04:37:34;;;;;;;;;;;12.40;57.30;;;7.85;95.20;95709.88;4966892;28;19920;-50
2023/04/19 04:40:04;;;;;;;;;;;12.40;57.40;;;7.87;94.94;95714.97;4970173;28;19945;-51
2023/04/19 04:42:30;;;;;;;;;;;12.40;57.40;;;7.84;95.03;95710.16;4976582;28;20808;-50
2023/04/19 04:44:56;;;;;;;;;;;12.40;57.40;;;7.84;95.14;95710.94;4971031;28;19914;-54
2023/04/19 04:47:23;;;;;;;;;;;12.40;57.50;;;7.84;95.06;95715.44;4973542;28;19909;-50
2023/04/19 04:49:49;;;;;;;;;;;12.40;57.40;;;7.87;95.26;95717.63;4974843;28;20045;-52
2023/04/19 04:52:16;;;;;;;;;;;12.40;57.40;;;7.86;95.01;95719.44;4974648;28;22768;-54
2023/04/19 04:54:42;;;;;;;;;;;12.40;57.50;;;7.88;95.53;95717.34;4969079;28;19976;-48
2023/04/19 04:57:08;;;;;;;;;;;12.40;57.50;;;7.92;95.01;95722.97;4969851;28;19918;-48
2023/04/19 04:59:33;;;;;;;;;;;12.40;57.50;;;7.91;94.99;95723.22;4976598;28;19909;-54
2023/04/19 05:01:59;;;;;;;;;;;12.50;57.60;;;7.94;94.94;95720.09;4974367;28;20280;-52
2023/04/19 05:04:25;;;;;;;;;;;12.50;57.50;;;7.93;94.85;95718.47;4973808;28;20376;-53
2023/04/19 05:06:51;;;;;;;;;;;12.50;58.10;;;7.89;94.71;95720.81;4975531;28;19948;-53
2023/04/19 05:09:16;;;;;;;;;;;12.50;57.50;;;7.91;94.85;95720.59;4973824;28;20353;-54
2023/04/19 05:11:42;;;;;;;;;;;12.50;57.50;;;7.93;94.88;95716.66;4973488;28;19921;-52
2023/04/19 05:14:08;;;;;;;;;;;12.50;57.50;;;7.94;94.91;95718.25;4970604;28;20379;-53
2023/04/19 05:16:34;;;;;;;;;;;12.50;57.50;;;7.97;94.94;95720.41;4971891;28;19972;-53
2023/04/19 05:18:59;;;;;;;;;;;12.60;57.60;;;8.00;94.68;95724.44;4970537;28;19988;-48
2023/04/19 05:21:25;;;;;;;;;;;12.60;57.50;;;8.05;94.35;95724.47;4968433;28;19913;-48
2023/04/19 05:23:55;;;;;;;;;;;12.60;57.50;;;8.07;94.93;95725.03;4974433;28;19909;-49
2023/04/19 05:26:20;;;;;;;;;;;12.60;57.50;;;8.10;94.59;95722.69;4956241;28;20012;-49
2023/04/19 05:28:46;;;;;;;;;;;12.70;57.60;;;8.11;94.56;95716.34;4974251;28;20390;-50
2023/04/19 05:31:12;;;;;;;;;;;12.70;58.20;;;8.12;94.64;95719.81;4969307;28;19916;-50
2023/04/19 05:33:38;;;;;;;;;;;12.70;57.50;;;8.15;94.27;95718.50;4975452;28;19909;-52
2023/04/19 05:36:04;;;;;;;;;;;12.80;57.60;;;8.16;94.25;95726.22;4969753;28;19936;-48
2023/04/19 05:38:30;;;;;;;;;;;12.80;57.50;;;8.18;94.27;95721.50;4970056;28;19917;-50
2023/04/19 05:40:56;;;;;;;;;;;12.80;57.50;;;8.21;93.99;95722.81;4978972;28;19932;-48
2023/04/19 05:43:21;;;;;;;;;;;12.80;57.50;;;8.23;93.63;95724.19;4975320;28;19909;-52
2023/04/19 05:45:48;;;;;;;;;;;12.90;57.50;;;8.26;93.46;95722.91;4971268;28;20278;-52
2023/04/19 05:48:14;;;;;;;;;;;12.90;57.50;;;8.27;93.03;95720.03;4963508;28;19949;-52
2023/04/19 05:50:40;;;;;;;;;;;12.90;57.50;;;8.30;93.36;95729.31;4965059;28;20395;-50
2023/04/19 05:53:06;;;;;;;;;;;12.90;57.50;;;8.26;93.65;95722.91;4965233;28;20483;-54
2023/04/19 05:55:31;;;;;;;;;;;12.90;57.40;;;8.21;93.25;95720.19;4967012;28;20016;-52
2023/04/19 05:57:58;;;;;;;;;;;13.00;57.40;;;8.25;93.15;95727.41;4970226;28;20276;-52
2023/04/19 06:00:23;;;;;;;;;;;13.00;57.50;;;8.23;92.62;95724.19;4966072;28;19914;-49
2023/04/19 06:02:49;;;;;;;;;;;13.00;57.40;;;8.25;92.96;95727.41;4970630;28;19932;-54
2023/04/19 06:05:15;;;;;;;;;;;13.00;57.40;;;8.21;92.03;95728.97;4968423;28;20391;-49
2023/04/19 06:07:41;;;;;;;;;;;13.00;57.40;;;8.10;92.89;95735.16;4965752;28;19932;-52
2023/04/19 06:10:07;;;;;;;;;;;13.00;57.30;;;8.16;93.42;95730.75;4966507;28;19910;-53
2023/04/19 06:12:33;;;;;;;;;;;13.00;57.30;;;8.19;92.08;95733.69;4965128;28;21719;-49
2023/04/19 06:14:59;;;;;;;;;;;13.10;57.40;;;8.23;92.33;95724.19;4971367;28;20237;-52
2023/04/19 06:17:25;;;;;;;;;;;13.10;57.30;;;8.26;92.65;95723.69;4966816;28;19984;-50
2023/04/19 06:19:51;;;;;;;;;;;13.10;57.30;;;8.30;92.05;95724.84;4965541;28;19949;-53
2023/04/19 06:22:17;;;;;;;;;;;13.10;57.30;;;8.41;92.48;95724.97;4967855;28;19980;-53
2023/04/19 06:24:47;;;;;;;;;;;13.20;57.30;;;8.44;92.01;95727.94;4968224;28;19918;-50
2023/04/19 06:27:14;;;;;;;;;;;13.30;57.30;;;8.43;91.15;95726.34;4973178;28;20165;-51
2023/04/19 06:29:40;;;;;;;;;;;13.30;57.20;;;8.51;90.97;95731.22;4973637;28;19931;-51
2023/04/19 06:32:06;;;;;;;;;;;13.40;57.20;;;8.51;91.00;95727.75;4969867;28;20383;-49
2023/04/19 06:34:32;;;;;;;;;;;13.50;57.20;;;8.45;89.41;95723.44;4967571;28;19916;-49
2023/04/19 06:36:58;;;;;;;;;;;13.50;57.10;;;8.62;89.68;95731.31;4968995;28;20915;-53
2023/04/19 06:39:23;;;;;;;;;;;13.60;57.10;;;8.74;88.59;95734.66;4971687;28;19917;-53
2023/04/19 06:41:49;;;;;;;;;;;13.70;57.00;;;8.85;88.19;95732.91;4967431;28;20372;-52
2023/04/19 06:44:15;;;;;;;;;;;13.90;57.00;;;8.97;87.73;95729.06;4971023;28;19971;-49
2023/04/19 06:46:40;;;;;;;;;;;14.00;56.80;;;9.07;86.95;95739.00;4970697;28;19928;-50
2023/04/19 06:49:06;;;;;;;;;;;14.20;56.80;;;9.15;86.00;95727.91;4954614;28;19992;-50
2023/04/19 06:51:32;;;;;;;;;;;14.30;56.50;;;9.23;85.96;95729.31;4966433;28;20260;-50
2023/04/19 06:53:58;;;;;;;;;;;14.50;56.40;;;9.33;85.08;95736.56;4969924;28;19913;-51
2023/04/19 06:56:44;;;;;;;;;;;14.60;56.30;;;9.36;84.90;95738.72;4975258;28;19917;-49
2023/04/19 06:59:16;;;;;;;;;;;14.70;56.30;;;9.41;84.61;95747.56;4966196;28;20004;-48
2023/04/19 07:01:43;;;;;;;;;;;14.70;56.10;;;9.46;84.09;95742.28;4969132;28;20347;-51
2023/04/19 07:04:10;;;;;;;;;;;14.80;56.10;;;9.54;83.87;95740.22;4974709;28;19960;-49
2023/04/19 07:06:36;;;;;;;;;;;14.80;56.00;;;9.61;83.51;95740.78;4967795;28;19917;-49
2023/04/19 07:09:04;;;;;;;;;;;14.80;55.90;;;9.52;82.14;95740.44;4968183;28;19964;-52
2023/04/19 07:11:30;;;;;;;;;;;14.90;55.80;;;9.24;83.04;95745.03;4973578;28;20280;-53
2023/04/19 07:13:57;;;;;;;;;;;14.90;55.70;;;9.36;82.88;95741.38;4966868;28;20422;-50
2023/04/19 07:16:23;;;;;;;;;;;14.90;55.60;;;9.46;83.68;95744.94;4973927;28;19917;-53
2023/04/19 07:18:48;;;;;;;;;;;14.90;55.50;;;9.44;83.65;95751.56;4944345;28;19938;-50
2023/04/19 07:21:14;;;;;;;;;;;14.90;55.50;;;9.52;83.02;95747.63;4955766;28;19937;-50
2023/04/19 07:23:40;;;;;;;;;;;14.90;55.50;;;9.52;82.60;95740.44;4969752;28;20324;-51
2023/04/19 07:26:07;;;;;;;;;;;15.00;55.50;;;9.33;83.40;95739.22;4967317;28;19914;-52
2023/04/19 07:28:33;;;;;;;;;;;15.00;55.40;;;9.49;83.22;95743.63;4964879;28;19910;-51
2023/04/19 07:30:59;;;;;;;;;;;15.00;55.40;;;9.53;83.14;95752.72;4973523;28;20284;-49
2023/04/19 07:33:26;;;;;;;;;;;15.00;55.30;;;9.47;83.00;95743.88;4969701;28;19921;-53
2023/04/19 07:35:53;;;;;;;;;;;15.00;55.90;;;9.58;82.37;95741.28;4967605;28;19957;-49
2023/04/19 07:38:19;;;;;;;;;;;15.00;55.30;;;9.63;82.24;95738.69;4968707;28;19963;-50
2023/04/19 07:40:45;;;;;;;;;;;15.10;55.20;;;9.66;81.52;95744.28;4968725;28;20354;-49
2023/04/19 07:43:11;;;;;;;;;;;15.10;55.10;;;9.60;82.44;95742.66;4970495;28;19956;-48
2023/04/19 07:45:37;;;;;;;;;;;15.20;55.00;;;9.64;81.93;95740.28;4967124;28;19924;-48
2023/04/19 07:48:03;;;;;;;;;;;15.20;55.00;;;9.63;81.36;95738.69;4969682;28;20177;-49
2023/04/19 07:50:29;;;;;;;;;;;15.30;54.90;;;9.61;81.43;95740.78;4965693;28;19948;-50
2023/04/19 07:52:55;;;;;;;;;;;15.30;54.80;;;9.44;81.20;95735.63;4964227;28;20712;-51
2023/04/19 07:55:21;;;;;;;;;;;15.30;54.70;;;9.52;81.78;95737.78;4967820;28;19909;-52
2023/04/19 07:57:49;;;;;;;;;;;15.40;54.60;;;9.63;81.76;95733.38;4968577;28;19913;-50
2023/04/19 08:00:17;;;;;;;;;;;15.40;54.60;;;9.72;81.56;95735.31;4966821;28;20483;-50
2023/04/19 08:02:47;;;;;;;;;;;15.50;54.50;;;9.75;80.60;95736.66;4967011;28;20037;-48
2023/04/19 08:05:18;;;;;;;;;;;15.60;54.40;;;9.79;80.40;95735.09;4945031;28;19910;-50
2023/04/19 08:07:45;;;;;;;;;;;15.70;54.30;;;9.78;80.59;95741.47;4962783;28;19976;-52
2023/04/19 08:10:11;;;;;;;;;;;15.70;54.20;;;9.88;80.58;95735.41;4972015;28;20379;-50
2023/04/19 08:12:37;;;;;;;;;;;15.80;54.20;;;9.64;79.52;95734.97;4965379;28;19967;-50
2023/04/19 08:15:07;;;;;;;;;;;15.80;54.10;;;9.48;80.00;95732.19;4968100;28;19938;-49
2023/04/19 08:17:34;;;;;;;;;;;15.80;53.90;;;9.49;80.53;95738.28;4967858;28;19913;-49
2023/04/19 08:20:00;;;;;;;;;;;15.70;53.80;;;9.45;80.86;95734.53;4968410;28;19917;-50
2023/04/19 08:22:25;;;;;;;;;;;15.70;53.80;;;9.42;80.04;95729.72;4965153;28;19984;-48
2023/04/19 08:24:52;;;;;;;;;;;15.60;53.80;;;9.65;79.53;95732.06;4966611;28;19921;-49
2023/04/19 08:27:19;;;;;;;;;;;15.50;53.80;;;9.60;79.64;95736.53;4971059;28;20169;-49
2023/04/19 08:29:45;;;;;;;;;;;15.50;53.90;;;9.55;79.06;95744.47;4968501;28;19916;-48
2023/04/19 08:32:12;;;;;;;;;;;15.50;54.00;;;9.52;80.00;95740.44;4966305;28;20347;-49
2023/04/19 08:34:39;;;;;;;;;;;15.40;53.90;;;9.63;79.15;95742.16;4965371;28;20467;-50
2023/04/19 08:37:08;;;;;;;;;;;15.40;54.00;;;9.63;79.88;95736.03;4965440;28;19922;-49
2023/04/19 08:39:35;;;;;;;;;;;15.40;54.00;;;9.56;79.15;95738.91;4966093;28;19910;-49
2023/04/19 08:42:08;;;;;;;;;;;15.30;54.00;;;9.43;79.99;95736.66;4964375;28;19944;-49
2023/04/19 08:44:38;;;;;;;;;;;15.30;53.90;;;9.44;79.81;95736.41;4970588;28;20412;-52
2023/04/19 08:47:05;;;;;;;;;;;15.30;53.90;;;9.57;78.99;95734.38;4967140;28;20595;-55
2023/04/19 08:49:37;;;;;;;;;;;15.40;53.90;;;9.73;78.79;95739.56;4963777;28;19918;-54
2023/04/19 08:52:05;;;;;;;;;;;15.40;53.80;;;9.72;78.07;95734.50;4966576;28;20027;-53
2023/04/19 08:54:34;;;;;;;;;;;15.50;53.80;;;9.48;78.79;95742.03;4953543;28;19914;-56
2023/04/19 08:57:00;;;;;;;;;;;15.60;53.60;;;9.61;78.97;95730.16;4948652;28;19920;-56
2023/04/19 08:59:29;;;;;;;;;;;15.70;53.50;;;9.40;78.83;95735.31;4969970;28;19913;-51
2023/04/19 09:01:58;;;;;;;;;;;15.70;53.40;;;9.47;79.89;95730.59;4966246;28;20557;-52
2023/04/19 09:04:24;;;;;;;;;;;15.70;53.40;;;9.72;78.29;95729.97;4971291;28;19921;-52
2023/04/19 09:06:50;;;;;;;;;;;15.70;53.40;;;9.95;77.73;95726.13;4965377;28;20399;-52
2023/04/19 09:09:27;;;;;;;;;;;15.80;53.40;;;9.94;77.70;95723.75;4961333;28;19913;-53
2023/04/19 09:11:53;;;;;;;;;;;15.80;53.40;;;9.94;77.87;95713.91;4964617;28;19916;-55
2023/04/19 09:14:22;;;;;;;;;;;15.90;53.30;;;10.18;78.18;95716.16;4965261;28;19909;-54
2023/04/19 09:16:48;;;;;;;;;;;16.00;53.20;;;10.39;77.63;95714.41;4970349;28;19914;-50
2023/04/19 09:19:16;;;;;;;;;;;16.20;53.20;;;10.44;75.90;95711.78;4969712;28;20515;-55
2023/04/19 09:21:42;;;;;;;;;;;16.40;53.10;;;10.60;76.61;95712.66;4966751;28;20284;-53
2023/04/19 09:24:08;;;;;;;;;;;16.60;52.90;;;10.75;75.20;95709.22;4970418;28;19910;-53
2023/04/19 09:26:36;;;;;;;;;;;16.90;52.70;;;10.96;76.05;95700.22;4969912;28;19924;-51
2023/04/19 09:29:05;;;;;;;;;;;17.20;52.50;;;11.02;72.91;95704.50;4969407;28;20337;-51
2023/04/19 09:31:34;;;;;;;;;;;17.60;52.20;;;11.30;72.46;95702.41;4968288;28;19910;-49
2023/04/19 09:34:17;;;;;;;;;;;17.90;51.80;;;11.34;71.43;95696.28;4967926;28;19980;-53
2023/04/19 09:36:44;;;;;;;;;;;18.30;51.50;;;11.34;71.71;95700.78;4967376;28;19921;-49
2023/04/19 09:39:10;;;;;;;;;;;18.50;51.00;;;11.59;71.80;95700.00;4977074;28;19947;-52
2023/04/19 09:41:52;;;;;;;;;;;18.70;50.70;;;11.72;70.32;95698.66;4968607;28;20055;-51
2023/04/19 09:44:18;;;;;;;;;;;18.80;50.40;;;11.77;69.93;95696.78;4970097;28;20403;-51
2023/04/19 09:46:45;;;;;;;;;;;18.80;50.40;;;11.74;69.29;95708.00;4968412;28;19957;-52
2023/04/19 09:49:18;;;;;;;;;;;18.80;50.30;;;11.77;69.37;95704.00;4962821;28;19990;-50
2023/04/19 09:52:04;;;;;;;;;;;18.80;50.20;;;11.71;70.48;95694.38;4967732;28;20381;-49
2023/04/19 09:54:31;;;;;;;;;;;18.70;50.10;;;11.81;69.83;95689.03;4953254;28;20001;-52
2023/04/19 09:56:57;;;;;;;;;;;18.70;50.10;;;11.88;69.03;95684.25;4971005;28;19914;-51
2023/04/19 09:59:23;;;;;;;;;;;18.70;50.10;;;11.95;67.62;95687.44;4966342;28;19920;-50
2023/04/19 10:01:55;;;;;;;;;;;18.80;49.80;;;11.76;68.25;95684.50;4971866;28;19918;-52
2023/04/19 10:04:21;;;;;;;;;;;18.90;49.70;;;11.94;68.84;95690.38;4968903;28;20380;-48
2023/04/19 10:06:50;;;;;;;;;;;19.00;49.60;;;12.14;68.52;95682.31;4969877;28;20376;-52
2023/04/19 10:09:18;;;;;;;;;;;19.10;49.50;;;12.04;68.14;95687.69;4968288;28;20256;-57
2023/04/19 10:11:51;;;;;;;;;;;19.10;49.20;;;12.02;68.81;95682.63;4972288;28;19917;-50
2023/04/19 10:14:23;;;;;;;;;;;19.20;49.10;;;12.05;67.77;95681.28;4968872;28;19917;-53
2023/04/19 10:16:50;;;;;;;;;;;19.20;49.10;;;12.16;67.41;95679.38;4977426;28;19920;-57
2023/04/19 10:19:21;;;;;;;;;;;19.10;49.20;;;11.92;68.96;95685.31;4967841;28;19910;-50
2023/04/19 10:21:50;;;;;;;;;;;19.10;49.10;;;11.91;67.93;95672.22;4950590;28;20294;-56
2023/04/19 10:24:18;;;;;;;;;;;19.00;49.70;;;12.03;69.02;95672.72;4968480;28;19972;-55
2023/04/19 10:27:23;;;;;;;;;;;19.00;49.00;;;12.22;68.21;95671.09;4976445;28;19935;-53
2023/04/19 10:29:55;;;;;;;;;;;19.00;49.00;;;12.17;67.07;95670.31;4916264;28;19910;-54
2023/04/19 10:32:25;;;;;;;;;;;19.20;49.00;;;12.31;66.51;95663.28;4965438;28;19918;-57
2023/04/19 10:34:53;;;;;;;;;;;19.20;48.90;;;12.27;65.99;95667.59;4967008;28;19910;-51
2023/04/19 10:37:24;;;;;;;;;;;19.30;48.80;;;12.10;68.76;95667.94;4970443;28;19913;-53
2023/04/19 10:39:51;;;;;;;;;;;19.20;48.60;;;12.17;68.47;95663.09;4950669;28;20380;-54
2023/04/19 10:42:17;;;;;;;;;;;19.30;48.60;;;12.27;66.91;95668.38;4966805;28;19976;-55
2023/04/19 10:45:31;;;;;;;;;;;19.30;48.60;;;12.34;67.49;95660.06;4968014;28;20041;-54
2023/04/19 10:47:56;;;;;;;;;;;19.30;48.60;;;12.09;66.56;95655.63;4971402;28;19909;-54
2023/04/19 10:50:23;;;;;;;;;;;19.20;48.50;;;11.77;67.50;95659.41;4969638;28;19964;-52
2023/04/19 10:52:49;;;;;;;;;;;19.20;48.40;;;11.41;69.28;95655.22;4961510;28;20000;-52
2023/04/19 10:55:18;;;;;;;;;;;19.10;48.30;;;11.16;70.83;95648.81;4967831;28;20544;-51
2023/04/19 10:58:05;;;;;;;;;;;19.00;48.20;;;11.20;69.95;95643.75;4965156;28;20352;-54
2023/04/19 11:00:32;;;;;;;;;;;18.90;48.20;;;11.63;69.07;95639.72;4965873;28;19924;-55
2023/04/19 11:03:50;;;;;;;;;;;19.00;48.20;;;12.22;67.00;95632.88;4968322;28;19918;-54
2023/04/19 11:06:21;;;;;;;;;;;19.30;48.20;;;12.71;64.49;95629.44;4968477;28;19968;-49
2023/04/19 11:08:47;;;;;;;;;;;19.80;48.00;;;13.03;64.68;95631.63;4969711;28;20154;-52
2023/04/19 11:11:14;;;;;;;;;;;20.20;47.70;;;12.93;63.10;95623.69;4968296;28;20281;-50
2023/04/19 11:13:42;;;;;;;;;;;20.50;47.50;;;13.09;64.47;95619.03;4966217;28;19976;-55
2023/04/19 11:16:09;;;;;;;;;;;20.80;47.20;;;13.30;64.28;95622.38;4964698;28;19918;-57
2023/04/19 11:18:34;;;;;;;;;;;21.00;46.90;;;13.38;60.89;95617.22;4966577;28;19914;-55
2023/04/19 11:21:00;;;;;;;;;;;21.10;46.60;;;13.47;60.31;95619.28;4963928;28;19917;-52
2023/04/19 11:23:26;;;;;;;;;;;21.20;46.30;;;13.73;60.52;95614.50;4975139;28;20011;-49
2023/04/19 11:25:52;;;;;;;;;;;21.20;46.20;;;13.61;61.28;95620.22;4964782;28;19909;-50